Time;durP1;ratioP1;P1;durP2;ratioP2;P2;SDS_P1;SDS_P2;PMS_P1;PMS_P2;Temp;Humidity;BMP_temperature;BMP_pressure;BME280_temperature;BME280_humidity;BME280_pressure;Samples;Min_cycle;Max_cycle;Signal;HPM_P1;HPM_P2
2021/10/02 00:35:49;;;;;;;5.07;4.10;;;;;;;;;;5053129;28;20059;-58
2021/10/02 00:41:08;;;;;;;5.93;4.05;;;;;;;;;;5037182;28;20364;-58
2021/10/02 00:46:14;;;;;;;4.68;3.90;;;;;;;;;;5041801;28;20044;-58
2021/10/02 00:48:40;;;;;;;11.23;4.25;;;;;;;;;;5038737;28;20447;-58
2021/10/02 00:51:07;;;;;;;4.15;3.53;;;;;;;;;;5037975;28;20047;-58
2021/10/02 00:53:33;;;;;;;4.93;4.07;;;;;;;;;;5022486;28;20053;-58
2021/10/02 00:56:02;;;;;;;5.47;3.75;;;;;;;;;;5056545;28;20472;-58
2021/10/02 00:58:31;;;;;;;6.20;3.70;;;;;;;;;;5038565;28;20124;-59
2021/10/02 01:00:58;;;;;;;6.32;4.20;;;;;;;;;;5056309;28;20025;-58
2021/10/02 01:03:27;;;;;;;5.97;4.28;;;;;;;;;;5056854;28;20052;-58
2021/10/02 01:06:10;;;;;;;7.35;4.18;;;;;;;;;;5056574;28;20108;-59
2021/10/02 01:08:43;;;;;;;5.75;3.92;;;;;;;;;;5056977;28;20075;-59
2021/10/02 01:11:09;;;;;;;6.70;4.13;;;;;;;;;;5055328;28;20044;-58
2021/10/02 01:13:37;;;;;;;5.20;4.25;;;;;;;;;;5056490;28;20443;-58
2021/10/02 01:16:09;;;;;;;6.20;4.18;;;;;;;;;;5056000;28;20051;-58
2021/10/02 01:18:40;;;;;;;7.15;4.45;;;;;;;;;;5039017;28;20116;-58
2021/10/02 01:21:33;;;;;;;4.82;3.97;;;;;;;;;;5056426;28;20035;-58
2021/10/02 01:24:03;;;;;;;5.35;4.13;;;;;;;;;;5056514;28;20083;-59
2021/10/02 01:26:35;;;;;;;5.22;3.75;;;;;;;;;;5056395;28;20483;-59
2021/10/02 01:29:03;;;;;;;7.00;5.68;;;;;;;;;;5055844;28;20110;-59
2021/10/02 01:34:25;;;;;;;5.68;4.35;;;;;;;;;;5056352;28;20044;-59
2021/10/02 01:48:03;;;;;;;5.85;3.97;;;;;;;;;;5055866;28;20529;-59
2021/10/02 01:50:36;;;;;;;4.35;3.53;;;;;;;;;;5054285;28;20025;-59
2021/10/02 01:53:03;;;;;;;6.38;4.57;;;;;;;;;;5037593;28;20036;-58
2021/10/02 01:55:31;;;;;;;7.15;4.47;;;;;;;;;;5055375;28;20443;-58
2021/10/02 01:57:58;;;;;;;4.95;3.90;;;;;;;;;;5055312;28;20047;-58
2021/10/02 02:00:25;;;;;;;6.15;4.43;;;;;;;;;;5055238;28;20029;-58
2021/10/02 02:02:54;;;;;;;7.22;4.35;;;;;;;;;;5056032;28;20032;-58
2021/10/02 02:05:21;;;;;;;5.60;4.25;;;;;;;;;;5037336;28;20036;-58
2021/10/02 02:07:50;;;;;;;5.05;4.07;;;;;;;;;;5055094;28;20112;-58
2021/10/02 02:10:18;;;;;;;5.18;3.60;;;;;;;;;;5055588;28;20025;-58
2021/10/02 02:12:45;;;;;;;5.25;4.72;;;;;;;;;;5037101;28;20388;-58
2021/10/02 02:15:12;;;;;;;4.80;4.18;;;;;;;;;;5037025;28;20029;-58
2021/10/02 02:17:47;;;;;;;5.15;3.85;;;;;;;;;;5037255;28;20029;-58
2021/10/02 02:20:17;;;;;;;6.65;4.28;;;;;;;;;;5037563;28;20029;-58
2021/10/02 02:22:43;;;;;;;6.07;4.15;;;;;;;;;;5055733;28;20443;-58
2021/10/02 02:25:11;;;;;;;6.40;4.60;;;;;;;;;;5037565;28;20143;-58
2021/10/02 02:27:37;;;;;;;7.18;4.75;;;;;;;;;;5054885;28;20025;-58
2021/10/02 02:30:04;;;;;;;5.70;4.60;;;;;;;;;;5036688;28;20035;-58
2021/10/02 02:32:30;;;;;;;4.00;3.47;;;;;;;;;;5054636;28;20035;-58
2021/10/02 02:34:59;;;;;;;8.52;4.57;;;;;;;;;;5037426;28;20182;-58
2021/10/02 02:37:25;;;;;;;6.25;3.75;;;;;;;;;;5054558;28;20091;-58
2021/10/02 02:39:51;;;;;;;8.13;4.70;;;;;;;;;;5036762;28;20468;-58
2021/10/02 02:42:17;;;;;;;4.80;4.30;;;;;;;;;;5054951;28;20082;-58
2021/10/02 02:44:43;;;;;;;7.05;4.80;;;;;;;;;;5054316;28;20032;-58
2021/10/02 02:47:14;;;;;;;7.60;4.20;;;;;;;;;;5036484;28;20048;-58
2021/10/02 02:49:43;;;;;;;7.13;4.68;;;;;;;;;;5054336;28;20025;-58
2021/10/02 02:52:17;;;;;;;6.80;4.97;;;;;;;;;;5036129;28;20032;-58
2021/10/02 02:54:47;;;;;;;7.15;4.78;;;;;;;;;;5054332;28;20056;-58
2021/10/02 02:57:26;;;;;;;6.38;5.07;;;;;;;;;;5054912;28;20036;-58
2021/10/02 03:00:00;;;;;;;6.05;4.72;;;;;;;;;;5037059;28;20056;-58
2021/10/02 03:02:27;;;;;;;5.63;4.28;;;;;;;;;;5036886;28;20363;-58
2021/10/02 03:04:54;;;;;;;5.25;4.70;;;;;;;;;;5054017;28;20112;-58
2021/10/02 03:07:21;;;;;;;9.43;5.20;;;;;;;;;;5019529;28;20041;-58
2021/10/02 03:09:51;;;;;;;7.03;5.55;;;;;;;;;;5054454;28;20405;-58
2021/10/02 03:12:17;;;;;;;8.68;5.70;;;;;;;;;;5036037;28;20092;-58
2021/10/02 03:14:46;;;;;;;7.97;4.97;;;;;;;;;;5053815;28;20032;-58
2021/10/02 03:17:13;;;;;;;7.15;6.00;;;;;;;;;;5036444;28;20021;-58
2021/10/02 03:19:39;;;;;;;7.15;5.47;;;;;;;;;;5035992;28;20063;-58
2021/10/02 03:22:07;;;;;;;6.70;5.47;;;;;;;;;;5054087;28;20025;-58
2021/10/02 03:24:35;;;;;;;14.98;6.88;;;;;;;;;;5036077;28;20056;-58
2021/10/02 03:27:03;;;;;;;6.70;5.18;;;;;;;;;;5036651;28;20098;-58
2021/10/02 03:29:29;;;;;;;6.57;4.57;;;;;;;;;;5053777;28;20470;-58
2021/10/02 03:31:56;;;;;;;6.60;4.95;;;;;;;;;;5035813;28;20040;-58
2021/10/02 03:34:22;;;;;;;7.22;4.93;;;;;;;;;;5035808;28;20033;-58
2021/10/02 03:36:52;;;;;;;6.25;4.95;;;;;;;;;;5036098;28;20025;-58
2021/10/02 03:39:18;;;;;;;6.38;5.15;;;;;;;;;;5053767;28;20021;-58
2021/10/02 03:42:02;;;;;;;7.75;5.28;;;;;;;;;;5053574;28;20028;-58
2021/10/02 03:44:28;;;;;;;9.55;5.47;;;;;;;;;;5053573;28;20043;-58
2021/10/02 03:46:54;;;;;;;4.97;4.47;;;;;;;;;;5054469;28;20159;-58
2021/10/02 03:49:20;;;;;;;6.28;5.35;;;;;;;;;;5035942;28;20032;-58
2021/10/02 03:51:49;;;;;;;8.70;5.40;;;;;;;;;;5053509;28;20470;-58
2021/10/02 03:54:15;;;;;;;7.15;6.45;;;;;;;;;;5054108;28;20029;-58
2021/10/02 03:56:41;;;;;;;6.50;5.68;;;;;;;;;;5053413;28;20047;-58
2021/10/02 03:59:07;;;;;;;11.40;5.32;;;;;;;;;;5053387;28;20021;-58
2021/10/02 04:01:33;;;;;;;5.63;4.90;;;;;;;;;;5053962;28;20023;-58
2021/10/02 04:03:58;;;;;;;10.40;4.93;;;;;;;;;;5054095;28;20035;-58
2021/10/02 04:06:25;;;;;;;7.22;4.88;;;;;;;;;;5054167;28;20025;-58
2021/10/02 04:08:50;;;;;;;7.00;5.22;;;;;;;;;;5053370;28;20025;-58
2021/10/02 04:11:16;;;;;;;6.07;5.07;;;;;;;;;;5035194;28;20531;-58
2021/10/02 04:13:42;;;;;;;6.25;5.30;;;;;;;;;;5054481;28;20079;-58
2021/10/02 04:16:08;;;;;;;7.55;5.65;;;;;;;;;;5057313;28;20037;-58
2021/10/02 04:18:34;;;;;;;6.78;5.40;;;;;;;;;;5057543;28;20094;-58
2021/10/02 04:21:00;;;;;;;7.30;4.70;;;;;;;;;;5039323;28;20033;-58
2021/10/02 04:23:27;;;;;;;6.28;4.95;;;;;;;;;;5039844;28;20029;-58
2021/10/02 04:25:53;;;;;;;6.20;5.13;;;;;;;;;;5057484;28;20082;-58
2021/10/02 04:28:21;;;;;;;7.15;5.28;;;;;;;;;;5039218;28;20025;-58
2021/10/02 04:30:49;;;;;;;6.25;5.20;;;;;;;;;;5038849;28;20386;-58
2021/10/02 04:33:19;;;;;;;8.63;6.22;;;;;;;;;;5057419;28;20021;-58
2021/10/02 04:35:45;;;;;;;6.35;4.30;;;;;;;;;;5056784;28;20458;-58
2021/10/02 04:38:13;;;;;;;6.43;5.28;;;;;;;;;;5057010;28;20047;-58
2021/10/02 04:40:39;;;;;;;5.85;5.13;;;;;;;;;;5057278;28;20029;-58
2021/10/02 04:43:05;;;;;;;6.72;5.80;;;;;;;;;;5039498;28;20039;-58
2021/10/02 04:45:31;;;;;;;7.18;5.50;;;;;;;;;;5057321;28;20025;-58
2021/10/02 04:47:57;;;;;;;9.27;5.72;;;;;;;;;;5057285;28;20456;-58
2021/10/02 04:50:23;;;;;;;5.60;4.97;;;;;;;;;;5056408;28;20108;-58
2021/10/02 04:52:54;;;;;;;7.88;5.50;;;;;;;;;;5055999;28;20072;-58
2021/10/02 04:55:20;;;;;;;;;;;;;;;;;;5057198;28;20052;-58
2021/10/02 04:57:46;;;;;;;9.25;6.25;;;;;;;;;;5056507;28;19908;-58
2021/10/02 05:00:12;;;;;;;7.53;6.30;;;;;;;;;;5056241;28;20029;-58
2021/10/02 05:02:38;;;;;;;5.85;5.28;;;;;;;;;;5057035;28;20427;-58
2021/10/02 05:05:05;;;;;;;8.18;5.90;;;;;;;;;;5056711;28;20065;-58
2021/10/02 05:07:31;;;;;;;7.80;6.00;;;;;;;;;;5038543;28;20025;-58
2021/10/02 05:09:57;;;;;;;8.20;5.63;;;;;;;;;;5056652;28;20028;-58
2021/10/02 05:12:23;;;;;;;8.25;5.55;;;;;;;;;;5057085;28;20091;-58
2021/10/02 05:14:55;;;;;;;8.70;5.68;;;;;;;;;;5055154;28;20425;-58
2021/10/02 05:17:21;;;;;;;8.80;5.65;;;;;;;;;;5038619;28;20386;-58
2021/10/02 05:19:47;;;;;;;10.50;6.30;;;;;;;;;;5056087;28;20417;-58
2021/10/02 05:22:13;;;;;;;6.28;5.55;;;;;;;;;;5039143;28;20021;-58
2021/10/02 05:24:43;;;;;;;7.03;5.82;;;;;;;;;;5037767;28;20037;-59
2021/10/02 05:27:12;;;;;;;6.53;5.88;;;;;;;;;;5055739;28;20029;-58
2021/10/02 05:29:39;;;;;;;8.25;5.53;;;;;;;;;;5038668;28;20075;-58
2021/10/02 05:32:08;;;;;;;6.63;5.88;;;;;;;;;;5055966;28;20371;-58
2021/10/02 05:34:34;;;;;;;8.20;6.25;;;;;;;;;;5037982;28;20032;-58
2021/10/02 05:37:03;;;;;;;6.63;5.50;;;;;;;;;;5037993;28;20039;-58
2021/10/02 05:39:32;;;;;;;6.47;5.53;;;;;;;;;;5055816;28;20032;-58
2021/10/02 05:42:00;;;;;;;7.47;6.22;;;;;;;;;;5055680;28;20029;-58
2021/10/02 05:44:27;;;;;;;8.05;5.45;;;;;;;;;;5055572;28;20029;-58
2021/10/02 05:46:53;;;;;;;9.13;6.32;;;;;;;;;;5055678;28;20035;-58
2021/10/02 05:49:19;;;;;;;9.85;6.88;;;;;;;;;;5038372;28;20427;-58
2021/10/02 05:51:45;;;;;;;9.07;5.88;;;;;;;;;;5021772;28;20029;-58
2021/10/02 05:54:11;;;;;;;8.50;5.95;;;;;;;;;;5038216;28;20083;-58
2021/10/02 05:56:40;;;;;;;9.85;5.97;;;;;;;;;;5038143;28;20060;-58
2021/10/02 05:59:06;;;;;;;6.10;5.38;;;;;;;;;;5037167;28;20490;-58
2021/10/02 06:01:32;;;;;;;8.48;6.03;;;;;;;;;;5038046;28;20151;-58
2021/10/02 06:03:58;;;;;;;9.48;6.72;;;;;;;;;;5055706;28;20121;-58
2021/10/02 06:06:24;;;;;;;10.95;6.65;;;;;;;;;;5037205;28;20040;-58
2021/10/02 06:08:50;;;;;;;13.95;6.72;;;;;;;;;;5037366;28;20033;-58
2021/10/02 06:11:16;;;;;;;9.70;7.05;;;;;;;;;;5055451;28;20041;-58
2021/10/02 06:13:42;;;;;;;7.18;5.78;;;;;;;;;;5037315;28;20089;-58
2021/10/02 06:16:08;;;;;;;8.77;6.97;;;;;;;;;;5055084;28;20524;-58
2021/10/02 06:18:34;;;;;;;8.68;6.78;;;;;;;;;;5037255;28;20025;-58
2021/10/02 06:21:01;;;;;;;7.80;5.72;;;;;;;;;;5055714;28;20025;-57
2021/10/02 06:23:27;;;;;;;10.60;6.05;;;;;;;;;;5037977;28;20499;-58
2021/10/02 06:25:56;;;;;;;9.68;5.95;;;;;;;;;;5037843;28;20035;-57
2021/10/02 06:28:22;;;;;;;9.68;6.65;;;;;;;;;;5037146;28;20024;-58
2021/10/02 06:30:48;;;;;;;9.05;6.65;;;;;;;;;;5055187;28;20451;-58
2021/10/02 06:33:15;;;;;;;7.68;6.15;;;;;;;;;;5054943;28;20060;-58
2021/10/02 06:35:44;;;;;;;9.10;7.15;;;;;;;;;;5037635;28;20055;-58
2021/10/02 06:38:10;;;;;;;8.90;6.57;;;;;;;;;;5054305;28;20028;-58
2021/10/02 06:40:40;;;;;;;8.18;6.47;;;;;;;;;;5054643;28;20447;-58
2021/10/02 06:43:06;;;;;;;8.35;7.38;;;;;;;;;;5054624;28;20119;-58
2021/10/02 06:45:32;;;;;;;7.00;6.22;;;;;;;;;;5021167;28;20097;-58
2021/10/02 06:47:58;;;;;;;9.48;6.18;;;;;;;;;;5036762;28;20108;-58
2021/10/02 06:50:24;;;;;;;6.55;5.82;;;;;;;;;;5055211;28;20021;-59
2021/10/02 06:52:50;;;;;;;8.00;6.22;;;;;;;;;;5054601;28;20501;-58
2021/10/02 06:55:16;;;;;;;7.53;6.63;;;;;;;;;;5055132;28;20067;-59
2021/10/02 06:57:42;;;;;;;7.50;6.68;;;;;;;;;;5037033;28;20021;-59
2021/10/02 07:00:09;;;;;;;8.85;6.88;;;;;;;;;;5054214;28;20040;-59
2021/10/02 07:02:39;;;;;;;8.23;6.18;;;;;;;;;;5020652;28;20076;-59
2021/10/02 07:05:05;;;;;;;7.22;6.32;;;;;;;;;;5054472;28;20037;-59
2021/10/02 07:07:31;;;;;;;11.20;6.38;;;;;;;;;;5054225;28;20095;-58
2021/10/02 07:09:57;;;;;;;7.43;5.50;;;;;;;;;;5036557;28;20056;-59
2021/10/02 07:12:23;;;;;;;13.40;7.15;;;;;;;;;;5054562;28;20049;-59
2021/10/02 07:14:49;;;;;;;7.30;6.00;;;;;;;;;;5054100;28;20112;-59
2021/10/02 07:17:19;;;;;;;7.35;6.35;;;;;;;;;;5054160;28;20049;-59
2021/10/02 07:19:45;;;;;;;8.43;6.68;;;;;;;;;;5054395;28;20032;-59
2021/10/02 07:22:11;;;;;;;7.22;6.22;;;;;;;;;;5054539;28;20115;-59
2021/10/02 07:24:37;;;;;;;7.68;6.25;;;;;;;;;;5054118;28;20120;-59
2021/10/02 07:27:04;;;;;;;10.98;7.32;;;;;;;;;;5054585;28;20064;-59
2021/10/02 07:29:30;;;;;;;11.23;6.75;;;;;;;;;;5035899;28;20025;-59
2021/10/02 07:31:56;;;;;;;6.00;5.07;;;;;;;;;;5053740;28;20058;-58
2021/10/02 07:34:25;;;;;;;6.88;6.00;;;;;;;;;;5053730;28;20044;-59
2021/10/02 07:36:51;;;;;;;9.40;6.28;;;;;;;;;;5053381;28;20163;-59
2021/10/02 07:39:19;;;;;;;7.32;5.80;;;;;;;;;;5053805;28;20075;-59
2021/10/02 07:41:47;;;;;;;10.82;6.65;;;;;;;;;;5035662;28;20036;-59
2021/10/02 07:44:14;;;;;;;6.13;5.10;;;;;;;;;;5054125;28;20086;-58
2021/10/02 07:46:43;;;;;;;6.97;5.82;;;;;;;;;;5053821;28;20021;-59
2021/10/02 07:49:09;;;;;;;7.68;5.03;;;;;;;;;;5053258;28;20363;-59
2021/10/02 07:51:35;;;;;;;6.88;5.20;;;;;;;;;;5035329;28;20048;-59
2021/10/02 07:54:03;;;;;;;7.72;4.88;;;;;;;;;;5053547;28;20033;-59
2021/10/02 07:56:29;;;;;;;8.55;5.93;;;;;;;;;;5035691;28;20108;-59
2021/10/02 07:58:59;;;;;;;8.90;6.18;;;;;;;;;;5035595;28;20059;-59
2021/10/02 08:01:28;;;;;;;5.87;5.20;;;;;;;;;;5053481;28;20044;-59
2021/10/02 08:03:54;;;;;;;7.53;5.22;;;;;;;;;;5053950;28;20029;-59
2021/10/02 08:06:22;;;;;;;9.68;5.43;;;;;;;;;;5035578;28;20031;-59
2021/10/02 08:08:48;;;;;;;6.10;4.97;;;;;;;;;;5053742;28;20021;-58
2021/10/02 08:11:14;;;;;;;5.18;4.40;;;;;;;;;;5053423;28;20068;-59
2021/10/02 08:13:40;;;;;;;5.90;5.18;;;;;;;;;;5053178;28;20052;-58
2021/10/02 08:16:09;;;;;;;5.43;4.07;;;;;;;;;;5053330;28;20451;-59
2021/10/02 08:18:38;;;;;;;4.82;3.92;;;;;;;;;;5035654;28;20029;-59
2021/10/02 08:21:05;;;;;;;6.07;4.00;;;;;;;;;;5035455;28;20462;-58
2021/10/02 08:23:34;;;;;;;4.38;3.50;;;;;;;;;;5054130;28;20350;-58
2021/10/02 08:26:01;;;;;;;5.32;3.63;;;;;;;;;;5053850;28;20035;-58
2021/10/02 08:28:27;;;;;;;4.00;3.25;;;;;;;;;;5035234;28;20029;-58
2021/10/02 08:30:54;;;;;;;5.50;3.42;;;;;;;;;;5053090;28;20075;-59
2021/10/02 08:33:23;;;;;;;5.68;3.38;;;;;;;;;;5034984;28;20057;-59
2021/10/02 08:35:49;;;;;;;5.28;3.25;;;;;;;;;;5053019;28;20048;-58
2021/10/02 08:38:15;;;;;;;4.90;3.25;;;;;;;;;;5035552;28;20487;-58
2021/10/02 08:40:41;;;;;;;4.97;3.50;;;;;;;;;;5053076;28;20029;-59
2021/10/02 08:43:14;;;;;;;4.20;3.47;;;;;;;;;;5036132;28;20025;-58
2021/10/02 08:45:41;;;;;;;4.82;3.53;;;;;;;;;;5053089;28;20064;-59
2021/10/02 08:48:11;;;;;;;5.15;3.60;;;;;;;;;;5053108;28;20025;-59
2021/10/02 08:50:39;;;;;;;3.80;3.22;;;;;;;;;;5035018;28;20387;-59
2021/10/02 08:53:05;;;;;;;4.07;3.03;;;;;;;;;;5053351;28;20493;-59
2021/10/02 08:55:34;;;;;;;5.18;3.38;;;;;;;;;;5035593;28;20053;-58
2021/10/02 08:58:00;;;;;;;4.03;3.10;;;;;;;;;;5052904;28;20029;-59
2021/10/02 09:00:26;;;;;;;6.07;3.17;;;;;;;;;;5037051;28;20032;-59
2021/10/02 09:02:57;;;;;;;3.33;2.25;;;;;;;;;;5056900;28;20025;-59
2021/10/02 09:05:24;;;;;;;4.53;2.92;;;;;;;;;;5039396;28;20361;-59
2021/10/02 09:07:52;;;;;;;5.50;2.90;;;;;;;;;;5056476;28;20029;-59
2021/10/02 09:10:18;;;;;;;4.38;2.72;;;;;;;;;;5056465;28;20029;-59
2021/10/02 09:12:45;;;;;;;3.90;2.53;;;;;;;;;;5056197;28;20049;-59
2021/10/02 09:15:15;;;;;;;4.93;2.80;;;;;;;;;;5056356;28;20032;-59
2021/10/02 09:17:41;;;;;;;4.53;2.67;;;;;;;;;;5055945;28;20023;-58
2021/10/02 09:20:08;;;;;;;6.80;2.45;;;;;;;;;;5056130;28;20021;-59
2021/10/02 09:22:35;;;;;;;2.78;2.22;;;;;;;;;;5056882;28;20048;-59
2021/10/02 09:25:02;;;;;;;3.33;1.92;;;;;;;;;;5056068;28;20039;-59
2021/10/02 09:27:29;;;;;;;4.30;1.95;;;;;;;;;;5056618;28;20021;-58
2021/10/02 09:30:10;;;;;;;2.70;1.52;;;;;;;;;;5056093;28;20095;-59
2021/10/02 09:32:38;;;;;;;3.00;2.35;;;;;;;;;;5038736;28;20053;-59
2021/10/02 09:35:10;;;;;;;3.47;2.05;;;;;;;;;;5038026;28;20061;-59
2021/10/02 09:37:38;;;;;;;3.63;1.95;;;;;;;;;;5055970;28;20033;-59
2021/10/02 09:40:07;;;;;;;3.45;2.00;;;;;;;;;;5056197;28;20409;-59
2021/10/02 09:42:36;;;;;;;4.60;2.75;;;;;;;;;;5056226;28;20029;-59
2021/10/02 09:45:04;;;;;;;3.03;1.75;;;;;;;;;;5055635;28;20043;-59
2021/10/02 09:47:31;;;;;;;5.40;1.95;;;;;;;;;;5056267;28;20343;-59
2021/10/02 09:49:57;;;;;;;3.08;1.48;;;;;;;;;;5038111;28;20021;-59
2021/10/02 09:52:42;;;;;;;3.03;1.70;;;;;;;;;;5038416;28;20025;-59
2021/10/02 09:55:16;;;;;;;3.17;2.15;;;;;;;;;;5055957;28;20398;-59
2021/10/02 09:57:44;;;;;;;2.60;1.80;;;;;;;;;;5055473;28;20029;-59
2021/10/02 10:00:12;;;;;;;3.20;2.00;;;;;;;;;;5038021;28;20028;-59
2021/10/02 10:02:39;;;;;;;3.70;2.30;;;;;;;;;;5055505;28;20028;-59
2021/10/02 10:05:06;;;;;;;3.33;1.75;;;;;;;;;;5055301;28;20427;-59
2021/10/02 10:07:32;;;;;;;5.70;2.45;;;;;;;;;;5038017;28;20090;-59
2021/10/02 10:10:18;;;;;;;3.95;2.15;;;;;;;;;;5038143;28;20351;-59
2021/10/02 10:12:45;;;;;;;2.95;1.83;;;;;;;;;;5055033;28;20053;-59
2021/10/02 10:15:26;;;;;;;3.63;2.22;;;;;;;;;;5055039;28;20440;-59
2021/10/02 10:17:52;;;;;;;3.22;1.88;;;;;;;;;;5055894;28;20029;-59
2021/10/02 10:20:19;;;;;;;6.97;2.20;;;;;;;;;;5037247;28;20100;-59
2021/10/02 10:22:45;;;;;;;3.75;1.88;;;;;;;;;;5037733;28;20056;-59
2021/10/02 10:25:12;;;;;;;4.20;1.75;;;;;;;;;;5037413;28;20061;-59
2021/10/02 10:27:47;;;;;;;3.58;2.33;;;;;;;;;;5055058;28;20052;-59
2021/10/02 10:30:22;;;;;;;4.68;2.00;;;;;;;;;;5055319;28;20362;-59
2021/10/02 10:32:59;;;;;;;3.08;2.20;;;;;;;;;;5054999;28;20020;-59
2021/10/02 10:35:26;;;;;;;3.67;2.22;;;;;;;;;;5055610;28;20029;-59
2021/10/02 10:37:58;;;;;;;3.42;2.60;;;;;;;;;;5055067;28;20049;-59
2021/10/02 10:40:24;;;;;;;3.55;2.45;;;;;;;;;;5054595;28;20116;-59
2021/10/02 10:42:52;;;;;;;4.18;2.58;;;;;;;;;;5054463;28;20025;-59
2021/10/02 10:45:18;;;;;;;4.65;2.75;;;;;;;;;;5054587;28;20029;-59
2021/10/02 10:47:45;;;;;;;4.45;2.65;;;;;;;;;;5054652;28;20033;-59
2021/10/02 10:50:11;;;;;;;5.18;2.90;;;;;;;;;;5054556;28;20084;-59
2021/10/02 10:52:38;;;;;;;5.60;2.60;;;;;;;;;;5055074;28;20119;-59
2021/10/02 10:55:13;;;;;;;3.28;1.92;;;;;;;;;;5036881;28;20021;-59
2021/10/02 10:57:44;;;;;;;3.83;2.13;;;;;;;;;;5054234;28;20059;-59
2021/10/02 11:00:10;;;;;;;;;;;;;;;;;;5037501;28;20032;-59
2021/10/02 11:02:46;;;;;;;6.57;2.42;;;;;;;;;;5055136;28;19909;-59
2021/10/02 11:05:31;;;;;;;5.18;2.30;;;;;;;;;;5053888;28;20471;-59
2021/10/02 11:07:57;;;;;;;3.97;2.47;;;;;;;;;;5054753;28;20096;-59
2021/10/02 11:10:42;;;;;;;3.78;2.25;;;;;;;;;;5053945;28;20570;-59
2021/10/02 11:13:15;;;;;;;4.10;2.50;;;;;;;;;;5054154;28;20032;-59
2021/10/02 11:15:42;;;;;;;3.78;2.72;;;;;;;;;;5054133;28;20021;-59
2021/10/02 11:18:45;;;;;;;4.93;3.03;;;;;;;;;;5053746;28;20021;-59
2021/10/02 11:21:12;;;;;;;4.07;2.60;;;;;;;;;;4953812;29;20418;-59
2021/10/02 11:24:01;;;;;;;4.22;2.53;;;;;;;;;;5035792;28;20044;-59
2021/10/02 11:26:47;;;;;;;4.15;2.78;;;;;;;;;;5053942;28;20082;-59
2021/10/02 11:29:21;;;;;;;3.55;2.65;;;;;;;;;;5036700;28;20112;-59
2021/10/02 11:31:51;;;;;;;7.97;3.08;;;;;;;;;;5053858;28;20047;-59
2021/10/02 11:34:21;;;;;;;3.78;2.42;;;;;;;;;;5053642;28;20501;-59
2021/10/02 11:36:49;;;;;;;3.92;2.63;;;;;;;;;;5054115;28;20029;-59
2021/10/02 11:39:15;;;;;;;3.90;2.35;;;;;;;;;;5053906;28;20183;-59
2021/10/02 11:41:57;;;;;;;4.50;2.78;;;;;;;;;;5054025;28;20434;-59
2021/10/02 11:44:32;;;;;;;4.97;3.35;;;;;;;;;;5054022;28;20060;-58
2021/10/02 11:47:17;;;;;;;4.15;2.42;;;;;;;;;;5054211;28;20067;-59
2021/10/02 11:49:43;;;;;;;3.78;2.63;;;;;;;;;;5053673;28;20064;-59
2021/10/02 11:52:09;;;;;;;3.50;2.50;;;;;;;;;;5053542;28;20029;-59
2021/10/02 11:54:35;;;;;;;5.72;3.65;;;;;;;;;;5053459;28;20112;-59
2021/10/02 11:57:09;;;;;;;3.85;2.65;;;;;;;;;;5053510;28;20021;-59
2021/10/02 11:59:35;;;;;;;3.65;2.33;;;;;;;;;;5053898;28;20071;-59
2021/10/02 12:02:04;;;;;;;2.90;2.38;;;;;;;;;;5053655;28;20021;-59
2021/10/02 12:04:30;;;;;;;2.45;1.67;;;;;;;;;;5053454;28;20033;-59
2021/10/02 12:06:56;;;;;;;5.05;2.53;;;;;;;;;;5053442;28;20025;-60
2021/10/02 12:09:23;;;;;;;4.03;2.53;;;;;;;;;;5053556;28;20103;-59
2021/10/02 12:11:51;;;;;;;3.15;2.47;;;;;;;;;;5035338;28;20102;-59
2021/10/02 12:14:21;;;;;;;3.85;2.58;;;;;;;;;;5053337;28;20025;-59
2021/10/02 12:16:53;;;;;;;4.15;2.35;;;;;;;;;;5035398;28;20024;-60
2021/10/02 12:19:20;;;;;;;3.55;2.20;;;;;;;;;;5053425;28;20017;-59
2021/10/02 12:21:47;;;;;;;3.38;2.22;;;;;;;;;;5053800;28;20025;-59
2021/10/02 12:24:21;;;;;;;3.58;1.92;;;;;;;;;;5035093;28;20033;-59
2021/10/02 12:26:47;;;;;;;2.80;1.83;;;;;;;;;;5034841;28;20028;-59
2021/10/02 12:29:15;;;;;;;3.40;2.35;;;;;;;;;;5053223;28;20343;-59
2021/10/02 12:31:44;;;;;;;3.30;1.92;;;;;;;;;;5053864;28;20063;-59
2021/10/02 12:34:11;;;;;;;3.73;2.50;;;;;;;;;;5053817;28;20044;-59
2021/10/02 12:36:39;;;;;;;4.47;2.22;;;;;;;;;;5038766;28;20274;-59
2021/10/02 12:39:05;;;;;;;3.95;2.15;;;;;;;;;;5056977;28;20021;-59
2021/10/02 12:41:38;;;;;;;3.65;2.75;;;;;;;;;;5057688;28;20074;-59
2021/10/02 12:44:05;;;;;;;3.35;2.30;;;;;;;;;;5056913;28;20025;-59
2021/10/02 12:46:31;;;;;;;4.35;2.65;;;;;;;;;;5038988;28;20036;-59
2021/10/02 12:48:57;;;;;;;3.70;2.42;;;;;;;;;;5057343;28;20043;-59
2021/10/02 12:51:23;;;;;;;2.97;2.03;;;;;;;;;;5039114;28;20039;-59
2021/10/02 12:53:49;;;;;;;2.63;1.92;;;;;;;;;;5056478;28;20025;-59
2021/10/02 12:56:20;;;;;;;4.53;2.35;;;;;;;;;;5056711;28;20075;-59
2021/10/02 12:58:46;;;;;;;4.18;2.78;;;;;;;;;;5057424;28;20071;-59
2021/10/02 13:01:13;;;;;;;5.38;2.92;;;;;;;;;;5057049;28;20029;-59
2021/10/02 13:03:42;;;;;;;6.00;3.95;;;;;;;;;;5056502;28;20083;-59
2021/10/02 13:06:08;;;;;;;4.80;2.80;;;;;;;;;;5056783;28;20494;-59
2021/10/02 13:08:37;;;;;;;5.68;2.92;;;;;;;;;;5056500;28;20025;-59
2021/10/02 13:11:03;;;;;;;3.90;2.65;;;;;;;;;;5028997;28;20053;-59
2021/10/02 13:13:29;;;;;;;3.78;2.38;;;;;;;;;;5016336;28;20476;-59
2021/10/02 13:15:57;;;;;;;2.75;2.10;;;;;;;;;;5016896;28;20056;-59
2021/10/02 13:18:24;;;;;;;3.50;2.17;;;;;;;;;;5016521;28;20022;-59
2021/10/02 13:20:58;;;;;;;4.00;2.22;;;;;;;;;;5016804;28;20026;-59
2021/10/02 13:23:32;;;;;;;3.75;2.70;;;;;;;;;;5016763;28;20380;-59
2021/10/02 13:26:02;;;;;;;4.32;2.35;;;;;;;;;;5015987;28;20030;-59
2021/10/02 13:28:32;;;;;;;3.40;2.00;;;;;;;;;;5015220;28;20478;-58
2021/10/02 13:30:59;;;;;;;2.65;1.75;;;;;;;;;;5016349;28;20026;-59
2021/10/02 13:33:25;;;;;;;3.95;2.47;;;;;;;;;;5015586;28;20062;-59
2021/10/02 13:35:56;;;;;;;5.07;2.53;;;;;;;;;;5015042;28;20022;-59
2021/10/02 13:38:36;;;;;;;3.00;2.08;;;;;;;;;;5015015;28;20022;-59
2021/10/02 13:41:06;;;;;;;4.65;2.70;;;;;;;;;;5016397;28;20018;-59
2021/10/02 13:43:32;;;;;;;3.13;1.80;;;;;;;;;;5016443;28;20073;-59
2021/10/02 13:46:01;;;;;;;3.05;2.20;;;;;;;;;;5015376;28;20316;-59
2021/10/02 13:48:29;;;;;;;4.85;2.47;;;;;;;;;;5016150;28;20337;-59
2021/10/02 13:50:57;;;;;;;5.43;3.67;;;;;;;;;;5016243;28;20349;-59
2021/10/02 13:53:23;;;;;;;9.45;4.90;;;;;;;;;;5016247;28;20022;-59
2021/10/02 13:55:49;;;;;;;3.75;2.40;;;;;;;;;;5015923;28;20026;-59
2021/10/02 13:58:16;;;;;;;3.88;2.88;;;;;;;;;;5016332;28;20033;-59
2021/10/02 14:00:42;;;;;;;4.65;2.97;;;;;;;;;;5016340;28;20018;-59
2021/10/02 14:03:08;;;;;;;4.40;2.90;;;;;;;;;;5016193;28;20025;-59
2021/10/02 14:05:34;;;;;;;2.53;1.70;;;;;;;;;;5016243;28;20034;-59
2021/10/02 14:08:01;;;;;;;3.28;1.92;;;;;;;;;;5015655;28;20163;-59
2021/10/02 14:10:28;;;;;;;3.95;2.22;;;;;;;;;;5017078;28;20030;-58
2021/10/02 14:12:55;;;;;;;4.25;1.92;;;;;;;;;;5055113;28;20017;-59
2021/10/02 14:15:21;;;;;;;3.47;2.00;;;;;;;;;;5055469;28;20057;-59
2021/10/02 14:17:47;;;;;;;2.78;2.10;;;;;;;;;;5037511;28;20120;-59
2021/10/02 14:20:14;;;;;;;3.25;1.65;;;;;;;;;;5055659;28;20033;-59
2021/10/02 14:22:40;;;;;;;3.00;1.90;;;;;;;;;;5055202;28;20021;-59
2021/10/02 14:25:07;;;;;;;3.85;2.38;;;;;;;;;;5037139;28;20453;-59
2021/10/02 14:27:33;;;;;;;3.55;2.60;;;;;;;;;;5055252;28;20028;-59
2021/10/02 14:30:00;;;;;;;3.70;2.05;;;;;;;;;;5037329;28;20104;-59
2021/10/02 14:32:26;;;;;;;3.53;2.22;;;;;;;;;;5055772;28;20083;-59
2021/10/02 14:34:52;;;;;;;2.88;2.17;;;;;;;;;;5055399;28;20025;-59
2021/10/02 14:37:18;;;;;;;2.70;1.98;;;;;;;;;;5053703;28;20040;-59
2021/10/02 14:39:48;;;;;;;4.07;2.05;;;;;;;;;;5036879;28;20116;-59
2021/10/02 14:42:16;;;;;;;3.75;2.10;;;;;;;;;;5054868;28;20059;-59
2021/10/02 14:44:43;;;;;;;3.42;1.88;;;;;;;;;;5054324;28;20033;-59
2021/10/02 14:47:08;;;;;;;2.88;2.10;;;;;;;;;;5054689;28;20025;-59
2021/10/02 14:49:34;;;;;;;4.95;2.25;;;;;;;;;;5054700;28;20538;-59
2021/10/02 14:52:01;;;;;;;3.08;2.03;;;;;;;;;;5054599;28;20028;-59
2021/10/02 14:54:31;;;;;;;5.38;2.20;;;;;;;;;;5054724;28;20036;-59
2021/10/02 14:56:58;;;;;;;3.85;2.58;;;;;;;;;;5054420;28;20070;-59
2021/10/02 14:59:25;;;;;;;3.03;2.17;;;;;;;;;;5054067;28;20086;-59
2021/10/02 15:01:51;;;;;;;3.65;2.25;;;;;;;;;;5054667;28;20099;-59
2021/10/02 15:04:18;;;;;;;3.47;2.47;;;;;;;;;;5054573;28;20040;-59
2021/10/02 15:06:47;;;;;;;3.88;2.30;;;;;;;;;;5054555;28;20455;-59
2021/10/02 15:09:13;;;;;;;2.42;1.60;;;;;;;;;;5054219;28;20416;-59
2021/10/02 15:11:40;;;;;;;3.75;2.28;;;;;;;;;;5054245;28;20135;-59
2021/10/02 15:14:06;;;;;;;3.53;2.05;;;;;;;;;;5054621;28;20510;-59
2021/10/02 15:16:33;;;;;;;3.65;2.13;;;;;;;;;;5054459;28;20029;-59
2021/10/02 15:18:59;;;;;;;6.30;3.25;;;;;;;;;;5054063;28;20375;-59
2021/10/02 15:21:28;;;;;;;3.20;2.03;;;;;;;;;;5054153;28;20064;-59
2021/10/02 15:23:54;;;;;;;3.95;2.67;;;;;;;;;;5037003;28;20041;-59
2021/10/02 15:26:22;;;;;;;3.65;2.13;;;;;;;;;;5053873;28;20029;-59
2021/10/02 15:28:53;;;;;;;3.00;2.05;;;;;;;;;;5053882;28;20028;-59
2021/10/02 15:31:19;;;;;;;3.85;2.85;;;;;;;;;;5054169;28;20406;-59
2021/10/02 15:33:46;;;;;;;3.45;2.25;;;;;;;;;;5054446;28;20029;-58
2021/10/02 15:36:12;;;;;;;3.22;2.25;;;;;;;;;;5054374;28;20360;-59
2021/10/02 15:38:40;;;;;;;3.75;2.45;;;;;;;;;;5053798;28;20021;-59
2021/10/02 15:41:06;;;;;;;3.45;2.33;;;;;;;;;;5054488;28;20028;-59
2021/10/02 15:43:33;;;;;;;3.47;2.38;;;;;;;;;;5036196;28;20025;-59